Time;durP1;ratioP1;P1;durP2;ratioP2;P2;SDS_P1;SDS_P2;PMS_P1;PMS_P2;Temp;Humidity;BMP_temperature;BMP_pressure;BME280_temperature;BME280_humidity;BME280_pressure;Samples;Min_cycle;Max_cycle;Signal;HPM_P1;HPM_P2
2022/12/04 00:01:17;;;;;;;28.83;21.52;;;26.30;99.90;;;;;;5055862;28;20136;-68
2022/12/04 00:03:44;;;;;;;24.73;17.02;;;26.30;99.90;;;;;;5056056;28;20048;-69
2022/12/04 00:06:12;;;;;;;28.55;17.65;;;26.30;99.90;;;;;;5055998;28;20021;-66
2022/12/04 00:08:39;;;;;;;77.18;53.97;;;26.40;99.90;;;;;;5055687;28;20031;-66
2022/12/04 00:11:07;;;;;;;172.80;122.65;;;26.50;99.90;;;;;;5055712;28;20382;-66
2022/12/04 00:13:34;;;;;;;42.25;33.10;;;26.50;99.90;;;;;;5055738;28;20481;-66
2022/12/04 00:16:02;;;;;;;122.78;105.20;;;26.40;99.90;;;;;;5055591;28;20028;-66
2022/12/04 00:18:29;;;;;;;70.60;50.90;;;26.50;99.90;;;;;;5055659;28;20021;-66
2022/12/04 00:20:55;;;;;;;29.52;23.05;;;26.50;99.90;;;;;;5055391;28;20079;-67
2022/12/04 00:23:21;;;;;;;23.95;21.23;;;26.50;99.90;;;;;;5055430;28;20108;-66
2022/12/04 00:25:48;;;;;;;28.33;20.67;;;26.50;99.90;;;;;;5055510;28;20021;-65
2022/12/04 00:28:16;;;;;;;29.17;21.42;;;26.60;99.90;;;;;;5055564;28;20029;-65
2022/12/04 00:30:44;;;;;;;24.30;20.25;;;26.70;99.90;;;;;;5055266;28;20029;-68
2022/12/04 00:33:12;;;;;;;27.42;21.70;;;26.60;99.90;;;;;;5055356;28;20485;-67
2022/12/04 00:35:39;;;;;;;25.08;21.00;;;26.50;99.90;;;;;;5055427;28;20087;-68
2022/12/04 00:38:05;;;;;;;27.20;19.70;;;26.50;99.90;;;;;;5055358;28;20025;-68
2022/12/04 00:40:32;;;;;;;25.67;19.80;;;26.60;99.90;;;;;;5048840;28;20103;-70
2022/12/04 00:42:59;;;;;;;21.13;18.83;;;26.70;99.90;;;;;;5043871;28;20028;-69
2022/12/04 00:45:25;;;;;;;21.75;17.42;;;26.70;99.90;;;;;;5045507;28;20028;-68
2022/12/04 00:47:52;;;;;;;21.00;16.75;;;26.80;99.90;;;;;;5044296;28;20045;-69
2022/12/04 00:50:18;;;;;;;18.70;15.82;;;26.80;99.90;;;;;;5041483;28;20021;-68
2022/12/04 00:52:45;;;;;;;20.98;16.80;;;26.80;99.90;;;;;;5034824;28;20389;-68
2022/12/04 00:55:11;;;;;;;23.35;16.35;;;26.80;99.90;;;;;;5035028;28;20457;-67
2022/12/04 00:57:38;;;;;;;29.42;18.83;;;26.80;99.90;;;;;;5034962;28;20029;-69
2022/12/04 01:00:06;;;;;;;23.50;15.68;;;26.90;99.90;;;;;;5034852;28;20100;-68
2022/12/04 01:02:33;;;;;;;21.40;14.15;;;26.80;99.90;;;;;;5034918;28;20105;-69
2022/12/04 01:05:00;;;;;;;20.70;13.85;;;26.90;99.90;;;;;;5034991;28;20071;-69
2022/12/04 01:07:27;;;;;;;25.15;16.65;;;26.90;99.90;;;;;;5049079;28;20067;-68
2022/12/04 01:09:54;;;;;;;21.38;15.00;;;27.00;99.90;;;;;;5054883;28;20201;-68
2022/12/04 01:12:20;;;;;;;17.13;12.07;;;27.00;99.90;;;;;;5055028;28;20025;-68
2022/12/04 01:14:47;;;;;;;21.48;14.75;;;27.20;99.90;;;;;;5054944;28;20067;-69
2022/12/04 01:17:13;;;;;;;19.70;13.05;;;27.20;99.90;;;;;;5054779;28;20017;-68
2022/12/04 01:19:40;;;;;;;17.88;11.35;;;27.30;99.90;;;;;;5054600;28;20067;-68
2022/12/04 01:22:07;;;;;;;15.90;12.02;;;27.30;99.90;;;;;;5054699;28;20017;-68
2022/12/04 01:24:33;;;;;;;18.98;11.85;;;27.40;99.90;;;;;;5054427;28;20040;-68
2022/12/04 01:27:00;;;;;;;20.92;12.00;;;27.40;99.90;;;;;;5054718;28;20394;-72
2022/12/04 01:29:26;;;;;;;22.33;12.70;;;27.40;99.90;;;;;;5054752;28;20151;-69
2022/12/04 01:31:53;;;;;;;19.27;11.43;;;27.50;99.90;;;;;;5054232;28;20041;-69
2022/12/04 01:34:19;;;;;;;16.02;10.52;;;27.50;99.90;;;;;;5054547;28;20028;-69
2022/12/04 01:36:47;;;;;;;17.92;12.32;;;27.50;99.90;;;;;;5054542;28;20025;-69
2022/12/04 01:39:13;;;;;;;19.02;11.55;;;27.50;99.90;;;;;;5054003;28;20082;-68
2022/12/04 01:41:40;;;;;;;20.00;11.65;;;27.60;99.90;;;;;;5054685;28;20051;-68
2022/12/04 01:44:10;;;;;;;18.55;12.48;;;27.60;99.90;;;;;;5054350;28;20543;-69
2022/12/04 01:46:38;;;;;;;20.05;12.10;;;27.70;99.90;;;;;;5054040;28;20025;-69
2022/12/04 01:49:09;;;;;;;15.32;11.90;;;27.70;99.90;;;;;;5044748;28;20026;-68
2022/12/04 01:51:40;;;;;;;17.63;11.40;;;27.70;99.90;;;;;;5042263;28;20075;-69
2022/12/04 01:54:11;;;;;;;15.80;11.82;;;27.80;99.90;;;;;;5042462;28;20029;-68
2022/12/04 01:56:48;;;;;;;16.70;9.38;;;27.90;99.90;;;;;;5042290;28;20515;-69
2022/12/04 01:59:18;;;;;;;17.13;9.75;;;27.90;99.90;;;;;;5041804;28;20061;-69
2022/12/04 02:01:59;;;;;;;14.07;7.40;;;28.00;99.90;;;;;;5044841;28;20025;-67
2022/12/04 02:04:26;;;;;;;13.07;9.13;;;28.10;99.90;;;;;;5043749;28;20041;-69
2022/12/04 02:06:52;;;;;;;20.88;9.13;;;28.20;99.90;;;;;;5042386;28;20064;-69
2022/12/04 02:09:22;;;;;;;13.75;8.95;;;28.30;99.90;;;;;;5043893;28;20520;-68
2022/12/04 02:12:00;;;;;;;13.85;8.25;;;28.50;99.90;;;;;;5044223;28;20028;-68
2022/12/04 02:14:29;;;;;;;15.15;8.05;;;28.40;99.90;;;;;;5046287;28;20028;-68
2022/12/04 02:17:01;;;;;;;16.55;8.43;;;28.40;99.90;;;;;;5045665;28;20420;-69
2022/12/04 02:19:33;;;;;;;12.52;8.32;;;28.50;99.90;;;;;;5044507;28;20063;-69
2022/12/04 02:22:06;;;;;;;12.00;7.80;;;28.50;99.90;;;;;;5041696;28;20025;-68
2022/12/04 02:24:35;;;;;;;10.88;7.65;;;28.50;99.90;;;;;;5036673;28;20088;-69
2022/12/04 02:27:07;;;;;;;16.15;9.20;;;28.50;99.90;;;;;;5036484;28;20021;-68
2022/12/04 02:29:40;;;;;;;10.35;6.32;;;28.50;99.90;;;;;;5036597;28;20030;-69
2022/12/04 02:32:07;;;;;;;10.93;6.28;;;28.60;99.90;;;;;;5044469;28;20085;-68
2022/12/04 02:34:44;;;;;;;11.40;6.70;;;28.60;99.90;;;;;;5046424;28;20037;-68
2022/12/04 02:37:17;;;;;;;10.25;6.70;;;28.60;99.90;;;;;;5044647;28;20025;-67
2022/12/04 02:39:55;;;;;;;21.85;9.75;;;28.60;99.90;;;;;;5048848;28;20021;-68
2022/12/04 02:42:37;;;;;;;12.48;9.35;;;28.60;99.90;;;;;;5054234;28;20029;-67
2022/12/04 02:45:11;;;;;;;13.15;8.07;;;28.60;99.90;;;;;;5053911;28;20025;-67
2022/12/04 02:47:41;;;;;;;10.40;6.95;;;28.60;99.90;;;;;;5053010;28;20094;-67
2022/12/04 02:50:14;;;;;;;13.63;8.13;;;28.70;99.90;;;;;;5053333;28;20028;-67
2022/12/04 02:52:47;;;;;;;11.73;7.70;;;28.60;99.90;;;;;;5052906;28;20025;-68
2022/12/04 02:55:22;;;;;;;10.35;6.32;;;28.70;99.90;;;;;;5053191;28;20583;-69
2022/12/04 02:57:55;;;;;;;8.23;5.50;;;28.80;99.90;;;;;;5053323;28;20059;-68
2022/12/04 03:00:21;;;;;;;;;;;28.80;99.90;;;;;;5053531;28;20032;-67
2022/12/04 03:03:07;;;;;;;9.98;6.85;;;28.80;99.90;;;;;;5053227;28;19905;-66
2022/12/04 03:05:42;;;;;;;12.38;6.78;;;28.80;99.90;;;;;;5053050;28;20032;-67
2022/12/04 03:08:16;;;;;;;9.40;7.15;;;28.80;99.90;;;;;;5053274;28;20016;-66
2022/12/04 03:10:50;;;;;;;13.88;7.68;;;28.70;99.90;;;;;;5053229;28;20021;-67
2022/12/04 03:13:25;;;;;;;10.60;7.40;;;28.80;99.90;;;;;;5053132;28;20025;-66
2022/12/04 03:16:11;;;;;;;16.20;8.88;;;28.80;99.90;;;;;;5053588;28;20032;-67
2022/12/04 03:18:42;;;;;;;13.70;8.27;;;28.90;99.90;;;;;;5055870;28;20037;-67
2022/12/04 03:21:17;;;;;;;20.73;8.53;;;28.90;99.90;;;;;;5057120;28;20070;-67
2022/12/04 03:23:51;;;;;;;14.05;8.40;;;28.90;99.90;;;;;;5056996;28;20381;-68
2022/12/04 03:26:24;;;;;;;16.67;9.70;;;28.90;99.90;;;;;;5057042;28;20488;-67
2022/12/04 03:31:50;;;;;;;12.45;7.65;;;29.10;99.90;;;;;;5056718;28;20045;-67
2022/12/04 03:34:27;;;;;;;13.82;7.43;;;29.20;99.90;;;;;;5048105;28;20492;-68
2022/12/04 03:36:58;;;;;;;10.50;6.53;;;29.20;99.90;;;;;;5053300;28;20028;-67
2022/12/04 03:39:49;;;;;;;14.65;6.57;;;29.20;99.90;;;;;;5056776;28;20025;-68
2022/12/04 03:42:16;;;;;;;15.07;6.97;;;29.20;99.90;;;;;;5056442;28;20024;-67
2022/12/04 03:44:52;;;;;;;9.60;5.90;;;29.20;99.90;;;;;;5056449;28;20021;-68
2022/12/04 03:50:11;;;;;;;11.55;5.63;;;29.30;99.90;;;;;;5056311;28;20049;-67
2022/12/04 03:52:40;;;;;;;9.55;6.25;;;29.40;99.90;;;;;;5056533;28;20047;-67
2022/12/04 03:55:17;;;;;;;9.25;6.00;;;29.50;99.90;;;;;;5056100;28;20025;-68
2022/12/04 03:57:45;;;;;;;13.25;6.22;;;29.40;99.90;;;;;;5056193;28;20027;-68
2022/12/04 04:00:21;;;;;;;14.73;8.13;;;29.50;99.90;;;;;;5055946;28;20539;-67
2022/12/04 04:02:57;;;;;;;12.35;6.78;;;29.50;99.90;;;;;;5056429;28;20515;-68
2022/12/04 04:05:26;;;;;;;13.75;7.20;;;29.60;99.90;;;;;;5055872;28;20017;-66
2022/12/04 04:08:24;;;;;;;11.75;7.25;;;29.70;99.90;;;;;;5056115;28;20026;-67
2022/12/04 04:10:43;;;;;;;13.82;6.45;;;29.80;99.90;;;;;;5055700;28;20029;-67
2022/12/04 04:25:58;;;;;;;13.32;7.70;;;30.20;99.90;;;;;;5055747;28;20024;-68
2022/12/04 04:28:45;;;;;;;17.17;6.78;;;30.10;99.90;;;;;;5054984;28;20063;-68
2022/12/04 04:31:24;;;;;;;9.82;5.88;;;30.00;99.90;;;;;;5054302;28;20092;-67
2022/12/04 04:34:02;;;;;;;12.15;6.63;;;30.10;99.90;;;;;;5055310;28;20099;-66
2022/12/04 04:36:35;;;;;;;11.88;7.35;;;30.10;99.90;;;;;;5055554;28;20021;-66
2022/12/04 04:39:21;;;;;;;9.63;7.88;;;30.10;99.90;;;;;;5055200;28;20119;-65
2022/12/04 04:42:12;;;;;;;11.73;8.70;;;30.10;99.90;;;;;;5055248;28;20113;-66
2022/12/04 04:44:44;;;;;;;10.13;7.80;;;30.00;99.90;;;;;;5040038;28;20040;-66
2022/12/04 04:47:19;;;;;;;13.13;8.68;;;30.00;99.90;;;;;;5055247;28;20477;-66
2022/12/04 04:49:48;;;;;;;11.73;9.20;;;30.00;99.90;;;;;;5055189;28;20029;-67
2022/12/04 04:52:17;;;;;;;26.75;16.20;;;30.00;99.90;;;;;;5055121;28;20025;-66
2022/12/04 04:54:45;;;;;;;28.08;17.30;;;30.00;99.90;;;;;;5055126;28;20021;-69
2022/12/04 04:57:11;;;;;;;36.65;20.45;;;30.00;99.90;;;;;;5054895;28;20029;-65
2022/12/04 04:59:38;;;;;;;64.13;33.25;;;30.00;99.90;;;;;;5055101;28;20370;-66
2022/12/04 05:02:04;;;;;;;56.70;35.42;;;30.10;99.90;;;;;;5054923;28;20096;-67
2022/12/04 05:04:31;;;;;;;53.78;36.15;;;30.20;99.90;;;;;;5049512;28;20020;-66
2022/12/04 05:06:57;;;;;;;50.30;32.65;;;30.30;99.90;;;;;;5044343;28;20076;-65
2022/12/04 05:09:25;;;;;;;47.92;32.78;;;30.30;99.90;;;;;;5042480;28;20422;-65
2022/12/04 05:11:51;;;;;;;54.35;34.38;;;30.30;99.90;;;;;;5043308;28;20055;-65
2022/12/04 05:14:18;;;;;;;60.55;39.58;;;30.30;99.90;;;;;;5044182;28;20037;-65
2022/12/04 05:16:44;;;;;;;65.20;43.30;;;30.40;99.90;;;;;;5042161;28;20025;-69
2022/12/04 05:21:40;;;;;;;65.53;42.38;;;30.50;99.90;;;;;;5044209;28;20044;-65
2022/12/04 05:24:07;;;;;;;47.65;36.30;;;30.50;99.90;;;;;;5042386;28;20378;-67
2022/12/04 05:26:34;;;;;;;55.88;39.33;;;30.60;99.90;;;;;;5042679;28;20369;-67
2022/12/04 05:29:00;;;;;;;47.92;35.70;;;30.60;99.90;;;;;;5043917;28;20470;-66
2022/12/04 05:31:27;;;;;;;52.10;38.42;;;30.50;99.90;;;;;;5042413;28;20367;-67
2022/12/04 05:33:53;;;;;;;67.22;46.35;;;30.60;99.90;;;;;;5042594;28;20025;-66
2022/12/04 05:36:20;;;;;;;80.40;54.33;;;30.60;99.90;;;;;;5043972;28;20036;-66
2022/12/04 05:38:46;;;;;;;70.95;51.90;;;30.60;99.90;;;;;;5042863;28;20021;-66
2022/12/04 05:41:13;;;;;;;72.68;47.70;;;30.70;99.90;;;;;;5042113;28;20027;-66
2022/12/04 05:43:42;;;;;;;76.68;54.50;;;30.80;99.90;;;;;;5044356;28;20390;-66
2022/12/04 05:46:09;;;;;;;78.57;53.17;;;30.80;99.90;;;;;;5042700;28;20028;-65
2022/12/04 05:48:36;;;;;;;81.47;55.92;;;30.90;99.90;;;;;;5042688;28;20020;-65
2022/12/04 05:51:07;;;;;;;84.18;58.42;;;30.90;99.90;;;;;;5044166;28;20021;-67
2022/12/04 05:53:33;;;;;;;77.75;52.65;;;30.90;99.90;;;;;;5043287;28;20079;-66
2022/12/04 05:56:02;;;;;;;64.63;46.30;;;30.80;99.90;;;;;;5042194;28;20032;-66
2022/12/04 05:58:29;;;;;;;73.32;49.30;;;30.90;99.90;;;;;;5042504;28;20053;-67
2022/12/04 06:00:56;;;;;;;63.85;44.10;;;30.90;99.90;;;;;;5042567;28;20025;-66
2022/12/04 06:03:23;;;;;;;50.47;35.13;;;30.90;99.90;;;;;;5043764;28;20017;-65
2022/12/04 06:05:49;;;;;;;35.38;23.27;;;30.90;99.90;;;;;;5042234;28;20037;-65
2022/12/04 06:08:16;;;;;;;38.08;23.20;;;30.90;99.90;;;;;;5042472;28;20064;-65
2022/12/04 06:10:42;;;;;;;36.75;22.92;;;31.00;99.90;;;;;;5043535;28;20056;-66
2022/12/04 06:13:09;;;;;;;30.33;20.70;;;31.00;99.90;;;;;;5042192;28;20071;-65
2022/12/04 06:15:38;;;;;;;39.75;27.10;;;31.00;99.90;;;;;;5042489;28;20013;-65
2022/12/04 06:18:05;;;;;;;34.80;25.33;;;31.00;99.90;;;;;;5043395;28;20031;-64
2022/12/04 06:20:32;;;;;;;31.90;24.25;;;31.00;99.90;;;;;;5042321;28;20025;-65
2022/12/04 06:22:59;;;;;;;37.55;26.98;;;31.00;99.90;;;;;;5041884;28;20063;-66
2022/12/04 06:25:26;;;;;;;39.05;29.75;;;31.00;99.90;;;;;;5041428;28;20470;-65
2022/12/04 06:27:52;;;;;;;37.22;27.42;;;30.90;99.90;;;;;;5040138;28;20119;-66
2022/12/04 06:30:19;;;;;;;37.10;26.73;;;30.90;99.90;;;;;;5040856;28;20025;-66
2022/12/04 06:32:45;;;;;;;29.77;21.98;;;30.90;99.90;;;;;;5041460;28;20041;-66
2022/12/04 06:35:12;;;;;;;29.60;21.95;;;30.90;99.90;;;;;;5039971;28;20029;-66
2022/12/04 06:37:38;;;;;;;26.70;21.45;;;31.00;99.90;;;;;;5033574;28;20017;-67
2022/12/04 06:40:06;;;;;;;43.35;26.50;;;31.00;99.90;;;;;;5033622;28;20084;-66
2022/12/04 06:42:32;;;;;;;75.30;44.58;;;31.00;99.90;;;;;;5033437;28;20060;-66
2022/12/04 06:45:00;;;;;;;65.18;43.28;;;31.00;99.90;;;;;;5052359;28;20392;-67
2022/12/04 06:47:26;;;;;;;65.53;43.58;;;31.00;99.90;;;;;;5053321;28;20029;-66
2022/12/04 06:49:52;;;;;;;79.43;51.88;;;31.10;99.90;;;;;;5053193;28;20390;-66
2022/12/04 06:52:19;;;;;;;67.97;45.85;;;31.10;99.90;;;;;;5052929;28;20033;-66
2022/12/04 06:54:48;;;;;;;62.03;41.85;;;31.00;99.90;;;;;;5053493;28;20048;-66
2022/12/04 06:57:15;;;;;;;71.45;46.25;;;31.00;99.90;;;;;;5053406;28;20059;-66
2022/12/04 06:59:41;;;;;;;59.47;40.00;;;31.00;99.90;;;;;;5053937;28;20025;-66
2022/12/04 07:02:09;;;;;;;34.75;23.20;;;31.00;99.90;;;;;;5050853;28;20021;-67
2022/12/04 07:04:36;;;;;;;38.00;19.98;;;31.00;99.90;;;;;;5044574;28;20054;-68
2022/12/04 07:07:02;;;;;;;27.63;18.02;;;31.00;99.90;;;;;;5041841;28;20377;-68
2022/12/04 07:09:29;;;;;;;31.33;22.50;;;31.00;99.90;;;;;;5043547;28;20501;-68
2022/12/04 07:11:55;;;;;;;36.15;24.08;;;30.90;99.90;;;;;;5041981;28;20053;-68
2022/12/04 07:14:22;;;;;;;46.90;29.05;;;30.90;99.90;;;;;;5042305;28;20025;-68
2022/12/04 07:16:48;;;;;;;44.50;27.73;;;31.00;99.90;;;;;;5043026;28;20104;-68
2022/12/04 07:19:15;;;;;;;63.88;45.33;;;31.00;99.90;;;;;;5043984;28;20097;-67
2022/12/04 07:21:42;;;;;;;50.80;32.70;;;31.00;99.90;;;;;;5042401;28;20032;-68
2022/12/04 07:24:10;;;;;;;28.33;18.20;;;31.00;99.90;;;;;;5043287;28;20462;-68
2022/12/04 07:26:37;;;;;;;12.57;8.18;;;30.90;99.90;;;;;;5044285;28;20061;-66
2022/12/04 07:29:03;;;;;;;9.50;5.25;;;30.80;99.90;;;;;;5042527;28;20474;-67
2022/12/04 07:31:30;;;;;;;13.00;6.55;;;30.70;99.90;;;;;;5042259;28;20044;-68
2022/12/04 07:33:57;;;;;;;8.02;5.05;;;30.60;99.90;;;;;;5048793;28;20492;-67
2022/12/04 07:36:25;;;;;;;19.45;10.13;;;30.40;99.90;;;;;;5052861;28;20060;-67
2022/12/04 07:38:53;;;;;;;9.50;4.82;;;30.30;99.90;;;;;;5053114;28;20100;-67
2022/12/04 07:41:20;;;;;;;15.80;7.72;;;30.20;99.90;;;;;;5052613;28;20029;-67
2022/12/04 07:43:46;;;;;;;14.48;8.13;;;30.00;99.90;;;;;;5053297;28;20045;-67
2022/12/04 07:46:17;;;;;;;7.05;4.75;;;30.00;99.90;;;;;;5051278;28;20100;-66
2022/12/04 07:48:44;;;;;;;35.60;19.30;;;29.90;99.90;;;;;;5046277;28;20105;-65
2022/12/04 07:51:12;;;;;;;47.75;32.97;;;29.80;99.90;;;;;;5041648;28;20030;-64
2022/12/04 07:53:39;;;;;;;164.15;109.10;;;29.90;99.90;;;;;;5039558;28;20048;-63
2022/12/04 07:56:07;;;;;;;80.93;52.28;;;29.80;99.90;;;;;;5043149;28;20505;-65
2022/12/04 07:58:34;;;;;;;30.88;20.42;;;29.80;99.90;;;;;;5041795;28;20074;-65
2022/12/04 08:01:06;;;;;;;231.43;151.82;;;29.70;99.90;;;;;;5044452;28;20037;-64
2022/12/04 08:03:32;;;;;;;;;;;29.80;99.90;;;;;;5043762;28;20021;-65
2022/12/04 08:06:02;;;;;;;175.27;98.35;;;29.70;99.90;;;;;;5045021;28;19916;-66
2022/12/04 08:08:31;;;;;;;30.60;19.33;;;29.60;99.90;;;;;;5045543;28;20020;-66
2022/12/04 08:10:58;;;;;;;129.35;76.13;;;29.30;99.90;;;;;;5049590;28;20423;-66
2022/12/04 08:13:25;;;;;;;26.85;15.25;;;29.30;99.90;;;;;;5043808;28;20021;-66
2022/12/04 08:15:51;;;;;;;18.70;12.82;;;29.30;99.90;;;;;;5043960;28;20052;-65
2022/12/04 08:18:18;;;;;;;17.52;10.30;;;29.30;99.90;;;;;;5045687;28;20076;-65
2022/12/04 08:20:45;;;;;;;35.22;20.95;;;29.20;99.90;;;;;;5044283;28;20025;-66
2022/12/04 08:23:11;;;;;;;19.90;13.23;;;29.10;99.90;;;;;;5044316;28;20022;-65
2022/12/04 08:25:39;;;;;;;18.88;11.50;;;29.10;99.90;;;;;;5044193;28;20017;-66
2022/12/04 08:28:06;;;;;;;25.92;17.35;;;29.00;99.90;;;;;;5043963;28;20029;-67
2022/12/04 08:30:34;;;;;;;9.02;6.15;;;29.00;99.90;;;;;;5044549;28;20405;-66
2022/12/04 08:33:01;;;;;;;8.55;5.80;;;28.90;99.90;;;;;;5045290;28;20057;-66
2022/12/04 08:35:28;;;;;;;12.63;6.45;;;28.90;99.90;;;;;;5040701;28;20493;-65
2022/12/04 08:37:55;;;;;;;20.85;9.82;;;28.80;99.90;;;;;;5037844;28;20029;-65
2022/12/04 08:40:22;;;;;;;20.08;10.82;;;28.80;99.90;;;;;;5037365;28;20464;-66
2022/12/04 08:42:48;;;;;;;12.63;7.95;;;28.70;99.90;;;;;;5037427;28;20374;-65
2022/12/04 08:45:15;;;;;;;16.58;10.60;;;28.60;99.90;;;;;;5040926;28;20104;-66
2022/12/04 08:47:42;;;;;;;16.40;11.23;;;28.50;99.90;;;;;;5047482;28;20031;-67
2022/12/04 08:50:08;;;;;;;30.10;17.65;;;28.40;99.90;;;;;;5045009;28;20139;-67
2022/12/04 08:52:35;;;;;;;16.30;9.30;;;28.40;99.90;;;;;;5045663;28;20758;-67
2022/12/04 08:55:01;;;;;;;10.95;7.15;;;28.50;99.90;;;;;;5044315;28;20450;-64
2022/12/04 08:57:28;;;;;;;12.10;6.22;;;28.60;99.90;;;;;;5044900;28;20107;-66
2022/12/04 08:59:54;;;;;;;12.15;6.53;;;28.60;99.90;;;;;;5047204;28;20025;-65
2022/12/04 09:02:21;;;;;;;17.85;10.23;;;28.60;99.90;;;;;;5043544;28;20013;-66
2022/12/04 09:04:47;;;;;;;16.08;8.43;;;28.60;99.90;;;;;;5044373;28;20028;-65
2022/12/04 09:07:14;;;;;;;10.38;7.00;;;28.60;99.90;;;;;;5044285;28;20032;-65
2022/12/04 09:09:40;;;;;;;9.38;6.50;;;28.60;99.90;;;;;;5052505;28;20036;-66
2022/12/04 09:12:07;;;;;;;11.20;7.68;;;28.60;99.90;;;;;;5054200;28;20142;-65
2022/12/04 09:14:33;;;;;;;11.43;7.63;;;28.60;99.90;;;;;;5047362;28;20101;-65
2022/12/04 09:17:00;;;;;;;11.35;8.65;;;28.60;99.90;;;;;;5034122;28;20505;-63
2022/12/04 09:19:26;;;;;;;9.65;7.28;;;28.70;99.90;;;;;;5034065;28;20569;-64
2022/12/04 09:21:53;;;;;;;11.30;6.78;;;28.60;99.90;;;;;;5047940;28;20032;-63
2022/12/04 09:24:20;;;;;;;13.48;8.20;;;28.60;99.90;;;;;;5053305;28;20036;-63
2022/12/04 09:26:47;;;;;;;12.85;8.93;;;28.70;99.90;;;;;;5043433;28;20108;-64
2022/12/04 09:29:16;;;;;;;24.48;15.63;;;28.60;99.90;;;;;;5036850;28;20109;-67
2022/12/04 09:31:42;;;;;;;37.15;23.83;;;28.60;99.90;;;;;;5047402;28;20390;-66
2022/12/04 09:34:09;;;;;;;30.80;17.33;;;28.60;99.90;;;;;;5043178;28;20021;-64
2022/12/04 09:36:37;;;;;;;27.73;21.05;;;28.60;99.90;;;;;;5045445;28;20013;-65
2022/12/04 09:39:04;;;;;;;32.60;24.00;;;28.50;99.90;;;;;;5053677;28;20075;-65
2022/12/04 09:41:35;;;;;;;35.70;24.98;;;28.60;99.90;;;;;;5054579;28;20025;-64
2022/12/04 09:44:05;;;;;;;46.95;31.17;;;28.60;99.90;;;;;;5054462;28;20486;-65
2022/12/04 09:46:39;;;;;;;61.25;44.88;;;28.70;99.90;;;;;;5054638;28;20559;-65
2022/12/04 09:49:13;;;;;;;63.72;46.65;;;28.80;99.90;;;;;;5054829;28;20036;-65
2022/12/04 09:51:42;;;;;;;47.33;31.08;;;28.70;99.90;;;;;;5054687;28;20055;-66
2022/12/04 09:54:13;;;;;;;33.40;22.55;;;28.70;99.90;;;;;;5054885;28;20420;-65
2022/12/04 09:56:42;;;;;;;34.60;23.48;;;28.70;99.90;;;;;;5054719;28;20024;-65
2022/12/04 09:59:16;;;;;;;44.97;32.92;;;28.60;99.90;;;;;;5054403;28;20495;-66
2022/12/04 10:01:56;;;;;;;21.15;13.43;;;28.60;99.90;;;;;;5054455;28;20536;-66
2022/12/04 10:07:04;;;;;;;32.83;24.13;;;28.60;99.90;;;;;;5054560;28;20017;-65
2022/12/04 10:09:39;;;;;;;34.85;23.48;;;28.40;99.90;;;;;;5054322;28;20029;-66
2022/12/04 10:12:08;;;;;;;31.27;22.00;;;28.30;99.90;;;;;;5054114;28;20361;-65
2022/12/04 10:14:45;;;;;;;90.60;52.40;;;28.40;99.90;;;;;;5054372;28;20488;-66
2022/12/04 10:17:14;;;;;;;89.05;50.03;;;28.50;99.90;;;;;;5054212;28;20181;-66
2022/12/04 10:19:49;;;;;;;63.85;36.05;;;28.50;99.90;;;;;;5054013;28;20057;-65
2022/12/04 10:22:18;;;;;;;51.85;32.75;;;28.50;99.90;;;;;;5053998;28;20021;-64
2022/12/04 10:24:46;;;;;;;108.53;59.22;;;28.50;99.90;;;;;;5053851;28;20104;-65
2022/12/04 10:27:24;;;;;;;58.17;35.42;;;28.40;99.90;;;;;;5053415;28;20021;-68
2022/12/04 10:29:57;;;;;;;35.70;23.95;;;28.30;99.90;;;;;;5053785;28;20036;-66
2022/12/04 10:32:28;;;;;;;29.05;19.42;;;28.30;99.90;;;;;;5053989;28;20049;-66
2022/12/04 10:34:59;;;;;;;41.50;26.13;;;28.40;99.90;;;;;;5054325;28;20079;-67
2022/12/04 10:37:26;;;;;;;52.53;31.80;;;28.30;99.90;;;;;;5053550;28;20048;-68
2022/12/04 10:42:32;;;;;;;21.50;13.35;;;28.30;99.90;;;;;;5042156;28;20446;-68
2022/12/04 10:44:59;;;;;;;20.48;12.77;;;28.20;99.90;;;;;;5041698;28;20086;-67
2022/12/04 10:47:26;;;;;;;20.33;12.52;;;28.10;99.90;;;;;;5043319;28;20066;-66
2022/12/04 10:49:59;;;;;;;25.88;14.15;;;28.10;99.90;;;;;;5042654;28;20470;-67
2022/12/04 10:52:28;;;;;;;41.72;23.38;;;28.10;99.90;;;;;;5044071;28;20027;-66
2022/12/04 10:55:00;;;;;;;50.40;28.55;;;28.10;99.90;;;;;;5044057;28;20037;-68
2022/12/04 10:57:40;;;;;;;62.85;37.53;;;28.10;99.90;;;;;;5041586;28;20378;-66
2022/12/04 11:00:12;;;;;;;54.40;32.33;;;28.10;99.90;;;;;;5040051;28;20124;-67
2022/12/04 11:02:39;;;;;;;42.42;27.33;;;28.10;99.90;;;;;;5052621;28;20388;-66
2022/12/04 11:05:22;;;;;;;40.15;24.13;;;28.10;99.90;;;;;;5047810;28;20048;-67
2022/12/04 11:07:50;;;;;;;41.28;25.80;;;28.00;99.90;;;;;;5042673;28;20032;-67
2022/12/04 11:10:20;;;;;;;51.70;28.63;;;28.00;99.90;;;;;;5042902;28;20090;-67
2022/12/04 11:12:52;;;;;;;45.55;27.10;;;28.00;99.90;;;;;;5041591;28;20025;-64
2022/12/04 11:15:19;;;;;;;40.08;28.38;;;27.90;99.90;;;;;;5041672;28;20543;-66
2022/12/04 11:17:48;;;;;;;40.75;31.77;;;27.90;99.90;;;;;;5041448;28;20029;-66
2022/12/04 11:20:19;;;;;;;38.20;28.50;;;28.00;99.90;;;;;;5041529;28;20509;-65
2022/12/04 11:22:57;;;;;;;42.05;30.33;;;28.00;99.90;;;;;;5040948;28;20025;-66
2022/12/04 11:25:30;;;;;;;47.25;35.67;;;28.00;99.90;;;;;;5040759;28;20056;-67
2022/12/04 11:28:01;;;;;;;51.55;35.22;;;28.00;99.90;;;;;;5041353;28;20023;-65
2022/12/04 11:30:35;;;;;;;56.60;37.47;;;27.90;99.90;;;;;;5041582;28;20061;-67
2022/12/04 11:33:04;;;;;;;69.30;42.33;;;27.90;99.90;;;;;;5040390;28;20107;-66
2022/12/04 11:35:32;;;;;;;64.60;41.88;;;27.90;99.90;;;;;;5050880;28;20033;-65
2022/12/04 11:38:05;;;;;;;68.78;43.90;;;27.70;99.90;;;;;;5044532;28;20412;-67
2022/12/04 11:40:32;;;;;;;79.15;48.13;;;27.80;99.90;;;;;;5045745;28;20025;-65
2022/12/04 11:43:03;;;;;;;68.57;46.20;;;27.90;99.90;;;;;;5044160;28;20017;-66
2022/12/04 11:45:30;;;;;;;72.10;48.33;;;27.90;99.90;;;;;;5044854;28;20066;-65
2022/12/04 11:48:00;;;;;;;162.00;110.15;;;27.80;99.90;;;;;;5045892;28;20029;-65
2022/12/04 11:50:49;;;;;;;71.40;46.85;;;27.80;99.90;;;;;;5047217;28;20401;-65
2022/12/04 11:53:25;;;;;;;57.00;36.53;;;27.90;99.90;;;;;;5044857;28;20041;-66
2022/12/04 11:56:15;;;;;;;59.67;38.58;;;27.90;99.90;;;;;;5054103;28;20029;-65
2022/12/04 11:58:44;;;;;;;62.50;40.65;;;28.00;99.90;;;;;;5056799;28;20473;-67
2022/12/04 12:01:20;;;;;;;59.53;39.97;;;27.80;99.90;;;;;;5056699;28;20075;-66
2022/12/04 12:03:52;;;;;;;63.28;43.28;;;27.90;99.90;;;;;;5046790;28;20116;-65
2022/12/04 12:06:32;;;;;;;64.05;43.25;;;27.90;99.90;;;;;;5036371;28;20484;-65
2022/12/04 12:09:05;;;;;;;57.60;40.65;;;27.70;99.90;;;;;;5036273;28;20044;-66
2022/12/04 12:11:39;;;;;;;75.65;47.05;;;27.70;99.90;;;;;;5037252;28;20547;-64
2022/12/04 12:14:15;;;;;;;81.75;51.97;;;27.80;99.90;;;;;;5036940;28;20474;-66
2022/12/04 12:16:45;;;;;;;116.38;67.00;;;27.80;99.90;;;;;;5037019;28;20099;-66
2022/12/04 12:19:15;;;;;;;148.90;92.15;;;27.90;99.90;;;;;;5039377;28;20025;-66
2022/12/04 12:22:10;;;;;;;156.60;95.35;;;27.90;99.90;;;;;;5053996;28;20025;-67
2022/12/04 12:24:42;;;;;;;98.68;67.80;;;27.90;99.90;;;;;;5047443;28;20489;-67
2022/12/04 12:27:12;;;;;;;67.22;48.70;;;27.90;99.90;;;;;;5049596;28;20057;-64
2022/12/04 12:29:38;;;;;;;68.82;43.97;;;27.80;99.90;;;;;;5035469;28;20060;-67
2022/12/04 12:32:11;;;;;;;73.93;44.92;;;27.90;99.90;;;;;;5035637;28;20128;-67
2022/12/04 12:37:38;;;;;;;69.85;46.00;;;27.90;99.90;;;;;;5035520;28;20240;-68
2022/12/04 12:40:20;;;;;;;77.10;47.45;;;27.90;99.90;;;;;;5030750;28;20065;-66
2022/12/04 12:42:55;;;;;;;99.53;61.92;;;27.80;99.90;;;;;;5035549;28;20022;-67
2022/12/04 12:45:31;;;;;;;71.85;49.58;;;27.70;99.90;;;;;;5035184;28;20030;-67
2022/12/04 12:48:07;;;;;;;77.40;57.38;;;27.60;99.90;;;;;;5035392;28;20104;-67
2022/12/04 12:50:37;;;;;;;68.07;49.22;;;27.60;99.90;;;;;;5034692;28;20022;-68
2022/12/04 12:53:14;;;;;;;74.93;49.45;;;27.60;99.90;;;;;;5035384;28;20115;-67
2022/12/04 12:55:48;;;;;;;79.07;54.95;;;27.60;99.90;;;;;;5035512;28;20033;-69
2022/12/04 12:58:38;;;;;;;76.53;55.47;;;27.60;99.90;;;;;;5035300;28;20030;-68
2022/12/04 13:01:12;;;;;;;79.25;52.05;;;27.60;99.90;;;;;;5029697;28;20041;-68
2022/12/04 13:03:44;;;;;;;61.17;46.72;;;27.60;99.90;;;;;;5034995;28;20027;-68
2022/12/04 13:06:16;;;;;;;;;;;27.70;99.90;;;;;;5035630;28;20041;-67
2022/12/04 13:08:51;;;;;;;56.63;42.45;;;27.70;99.90;;;;;;5034924;28;20361;-68
2022/12/04 13:11:22;;;;;;;65.70;45.80;;;27.80;99.90;;;;;;5034858;28;20033;-67
2022/12/04 13:13:55;;;;;;;71.50;49.83;;;27.60;99.90;;;;;;5034825;28;20075;-68